sensor_id;sensor_type;location;lat;lon;timestamp;P1;durP1;ratioP1;P2;durP2;ratioP2
12567;SDS011;6349;50.904;6.136;2023-07-30T00:00:19;4.10;;;2.30;;
12567;SDS011;6349;50.904;6.136;2023-07-30T00:02:19;2.83;;;1.90;;
12567;SDS011;6349;50.904;6.136;2023-07-30T00:04:20;3.92;;;1.95;;
12567;SDS011;6349;50.904;6.136;2023-07-30T00:06:21;3.88;;;1.88;;
12567;SDS011;6349;50.904;6.136;2023-07-30T00:08:21;3.65;;;1.70;;
12567;SDS011;6349;50.904;6.136;2023-07-30T00:10:22;2.90;;;1.92;;
12567;SDS011;6349;50.904;6.136;2023-07-30T00:12:23;2.75;;;1.85;;
12567;SDS011;6349;50.904;6.136;2023-07-30T00:14:23;2.20;;;1.88;;
12567;SDS011;6349;50.904;6.136;2023-07-30T00:16:27;2.50;;;1.83;;
12567;SDS011;6349;50.904;6.136;2023-07-30T00:18:28;3.33;;;1.80;;
12567;SDS011;6349;50.904;6.136;2023-07-30T00:20:28;3.83;;;2.00;;
12567;SDS011;6349;50.904;6.136;2023-07-30T00:22:29;3.65;;;2.10;;
12567;SDS011;6349;50.904;6.136;2023-07-30T00:24:30;3.25;;;1.90;;
12567;SDS011;6349;50.904;6.136;2023-07-30T00:26:30;4.03;;;1.83;;
12567;SDS011;6349;50.904;6.136;2023-07-30T00:28:31;4.45;;;2.10;;
12567;SDS011;6349;50.904;6.136;2023-07-30T00:30:32;4.10;;;1.90;;
12567;SDS011;6349;50.904;6.136;2023-07-30T00:32:32;5.68;;;2.28;;
12567;SDS011;6349;50.904;6.136;2023-07-30T00:34:33;2.45;;;1.63;;
12567;SDS011;6349;50.904;6.136;2023-07-30T00:36:33;3.80;;;2.10;;
12567;SDS011;6349;50.904;6.136;2023-07-30T00:38:34;3.50;;;2.25;;
12567;SDS011;6349;50.904;6.136;2023-07-30T00:40:41;2.58;;;1.85;;
12567;SDS011;6349;50.904;6.136;2023-07-30T00:42:41;2.92;;;2.17;;
12567;SDS011;6349;50.904;6.136;2023-07-30T00:44:42;3.25;;;2.00;;
12567;SDS011;6349;50.904;6.136;2023-07-30T00:46:42;3.95;;;1.92;;
12567;SDS011;6349;50.904;6.136;2023-07-30T00:48:43;2.83;;;2.00;;
12567;SDS011;6349;50.904;6.136;2023-07-30T00:50:44;3.25;;;2.05;;
12567;SDS011;6349;50.904;6.136;2023-07-30T00:52:44;3.33;;;2.10;;
12567;SDS011;6349;50.904;6.136;2023-07-30T00:54:46;3.75;;;2.10;;
12567;SDS011;6349;50.904;6.136;2023-07-30T00:56:51;5.15;;;1.98;;
12567;SDS011;6349;50.904;6.136;2023-07-30T00:58:53;2.65;;;1.75;;
12567;SDS011;6349;50.904;6.136;2023-07-30T01:00:54;2.67;;;1.98;;
12567;SDS011;6349;50.904;6.136;2023-07-30T01:02:56;4.97;;;2.03;;
12567;SDS011;6349;50.904;6.136;2023-07-30T01:04:56;5.40;;;2.00;;
12567;SDS011;6349;50.904;6.136;2023-07-30T01:07:00;4.90;;;2.20;;
12567;SDS011;6349;50.904;6.136;2023-07-30T01:09:00;5.45;;;2.22;;
12567;SDS011;6349;50.904;6.136;2023-07-30T01:11:02;3.63;;;2.00;;
12567;SDS011;6349;50.904;6.136;2023-07-30T01:13:05;4.25;;;2.28;;
12567;SDS011;6349;50.904;6.136;2023-07-30T01:15:08;3.28;;;2.17;;
12567;SDS011;6349;50.904;6.136;2023-07-30T01:17:09;3.92;;;2.30;;
12567;SDS011;6349;50.904;6.136;2023-07-30T01:19:11;2.90;;;1.77;;
12567;SDS011;6349;50.904;6.136;2023-07-30T01:21:12;6.60;;;2.20;;
12567;SDS011;6349;50.904;6.136;2023-07-30T01:23:12;3.28;;;2.03;;
12567;SDS011;6349;50.904;6.136;2023-07-30T01:25:14;5.13;;;2.20;;
12567;SDS011;6349;50.904;6.136;2023-07-30T01:27:16;2.58;;;2.00;;
12567;SDS011;6349;50.904;6.136;2023-07-30T01:29:27;5.05;;;2.20;;
12567;SDS011;6349;50.904;6.136;2023-07-30T01:31:42;5.25;;;2.05;;
12567;SDS011;6349;50.904;6.136;2023-07-30T01:33:48;4.45;;;2.00;;
12567;SDS011;6349;50.904;6.136;2023-07-30T01:35:50;4.90;;;2.17;;
12567;SDS011;6349;50.904;6.136;2023-07-30T01:37:51;4.47;;;2.20;;
12567;SDS011;6349;50.904;6.136;2023-07-30T01:39:53;2.40;;;1.98;;
12567;SDS011;6349;50.904;6.136;2023-07-30T01:41:54;4.38;;;2.10;;
12567;SDS011;6349;50.904;6.136;2023-07-30T01:43:55;3.55;;;2.28;;
12567;SDS011;6349;50.904;6.136;2023-07-30T01:45:56;4.75;;;2.20;;
12567;SDS011;6349;50.904;6.136;2023-07-30T01:47:56;5.15;;;2.30;;
12567;SDS011;6349;50.904;6.136;2023-07-30T01:49:57;3.42;;;2.10;;
12567;SDS011;6349;50.904;6.136;2023-07-30T01:51:58;4.90;;;2.10;;
12567;SDS011;6349;50.904;6.136;2023-07-30T01:53:59;6.35;;;2.20;;
12567;SDS011;6349;50.904;6.136;2023-07-30T01:55:59;4.30;;;2.30;;
12567;SDS011;6349;50.904;6.136;2023-07-30T01:58:00;4.32;;;2.22;;
12567;SDS011;6349;50.904;6.136;2023-07-30T02:00:00;4.15;;;2.30;;
12567;SDS011;6349;50.904;6.136;2023-07-30T02:02:01;2.72;;;2.03;;
12567;SDS011;6349;50.904;6.136;2023-07-30T02:04:02;2.88;;;1.80;;
12567;SDS011;6349;50.904;6.136;2023-07-30T02:06:04;2.05;;;1.85;;
12567;SDS011;6349;50.904;6.136;2023-07-30T02:08:05;4.90;;;2.05;;
12567;SDS011;6349;50.904;6.136;2023-07-30T02:10:06;8.60;;;2.40;;
12567;SDS011;6349;50.904;6.136;2023-07-30T02:12:07;4.15;;;1.95;;
12567;SDS011;6349;50.904;6.136;2023-07-30T02:14:08;4.75;;;2.10;;
12567;SDS011;6349;50.904;6.136;2023-07-30T02:16:09;4.47;;;2.30;;
12567;SDS011;6349;50.904;6.136;2023-07-30T02:18:10;6.10;;;2.10;;
12567;SDS011;6349;50.904;6.136;2023-07-30T02:20:10;3.75;;;2.30;;
12567;SDS011;6349;50.904;6.136;2023-07-30T02:22:11;2.63;;;1.70;;
12567;SDS011;6349;50.904;6.136;2023-07-30T02:24:11;3.55;;;2.20;;
12567;SDS011;6349;50.904;6.136;2023-07-30T02:26:12;6.95;;;2.05;;
12567;SDS011;6349;50.904;6.136;2023-07-30T02:28:13;3.83;;;1.88;;
12567;SDS011;6349;50.904;6.136;2023-07-30T02:30:13;3.50;;;2.00;;
12567;SDS011;6349;50.904;6.136;2023-07-30T02:32:14;6.90;;;2.20;;
12567;SDS011;6349;50.904;6.136;2023-07-30T02:34:15;3.78;;;1.88;;
12567;SDS011;6349;50.904;6.136;2023-07-30T02:36:16;7.00;;;2.00;;
12567;SDS011;6349;50.904;6.136;2023-07-30T02:38:16;4.60;;;1.88;;
12567;SDS011;6349;50.904;6.136;2023-07-30T02:40:17;2.67;;;1.88;;
12567;SDS011;6349;50.904;6.136;2023-07-30T02:42:18;3.53;;;1.67;;
12567;SDS011;6349;50.904;6.136;2023-07-30T02:44:18;4.03;;;1.60;;
12567;SDS011;6349;50.904;6.136;2023-07-30T02:46:19;1.55;;;1.35;;
12567;SDS011;6349;50.904;6.136;2023-07-30T02:48:19;2.47;;;1.50;;
12567;SDS011;6349;50.904;6.136;2023-07-30T02:50:20;4.45;;;1.80;;
12567;SDS011;6349;50.904;6.136;2023-07-30T02:52:20;4.57;;;1.88;;
12567;SDS011;6349;50.904;6.136;2023-07-30T02:54:21;3.22;;;1.95;;
12567;SDS011;6349;50.904;6.136;2023-07-30T02:56:22;2.78;;;1.77;;
12567;SDS011;6349;50.904;6.136;2023-07-30T02:58:22;2.55;;;1.90;;
12567;SDS011;6349;50.904;6.136;2023-07-30T03:00:23;4.82;;;1.80;;
12567;SDS011;6349;50.904;6.136;2023-07-30T03:02:24;4.68;;;1.75;;
12567;SDS011;6349;50.904;6.136;2023-07-30T03:04:24;4.38;;;1.90;;
12567;SDS011;6349;50.904;6.136;2023-07-30T03:06:25;3.17;;;1.92;;
12567;SDS011;6349;50.904;6.136;2023-07-30T03:08:25;3.45;;;1.92;;
12567;SDS011;6349;50.904;6.136;2023-07-30T03:10:26;3.65;;;2.20;;
12567;SDS011;6349;50.904;6.136;2023-07-30T03:12:27;3.08;;;1.95;;
12567;SDS011;6349;50.904;6.136;2023-07-30T03:14:27;5.07;;;1.92;;
12567;SDS011;6349;50.904;6.136;2023-07-30T03:16:29;2.55;;;1.80;;
12567;SDS011;6349;50.904;6.136;2023-07-30T03:18:30;2.88;;;1.77;;
12567;SDS011;6349;50.904;6.136;2023-07-30T03:20:30;6.20;;;1.88;;
12567;SDS011;6349;50.904;6.136;2023-07-30T03:22:31;6.03;;;1.75;;
12567;SDS011;6349;50.904;6.136;2023-07-30T03:24:31;3.00;;;1.50;;
12567;SDS011;6349;50.904;6.136;2023-07-30T03:26:32;3.08;;;1.48;;
12567;SDS011;6349;50.904;6.136;2023-07-30T03:28:32;2.58;;;1.30;;
12567;SDS011;6349;50.904;6.136;2023-07-30T03:30:33;2.50;;;1.38;;
12567;SDS011;6349;50.904;6.136;2023-07-30T03:32:33;5.13;;;1.35;;
12567;SDS011;6349;50.904;6.136;2023-07-30T03:34:34;2.17;;;1.33;;
12567;SDS011;6349;50.904;6.136;2023-07-30T03:36:35;3.58;;;1.45;;
12567;SDS011;6349;50.904;6.136;2023-07-30T03:38:35;1.48;;;0.90;;
12567;SDS011;6349;50.904;6.136;2023-07-30T03:40:39;3.35;;;1.42;;
12567;SDS011;6349;50.904;6.136;2023-07-30T03:42:39;2.78;;;1.50;;
12567;SDS011;6349;50.904;6.136;2023-07-30T03:44:40;2.60;;;1.30;;
12567;SDS011;6349;50.904;6.136;2023-07-30T03:46:40;3.53;;;1.33;;
12567;SDS011;6349;50.904;6.136;2023-07-30T03:48:41;2.25;;;1.13;;
12567;SDS011;6349;50.904;6.136;2023-07-30T03:50:42;2.25;;;1.30;;
12567;SDS011;6349;50.904;6.136;2023-07-30T03:52:42;3.00;;;1.25;;
12567;SDS011;6349;50.904;6.136;2023-07-30T03:54:43;3.65;;;1.40;;
12567;SDS011;6349;50.904;6.136;2023-07-30T03:56:43;2.80;;;1.40;;
12567;SDS011;6349;50.904;6.136;2023-07-30T03:58:44;3.42;;;1.10;;
12567;SDS011;6349;50.904;6.136;2023-07-30T04:00:45;2.83;;;1.40;;
12567;SDS011;6349;50.904;6.136;2023-07-30T04:02:45;4.55;;;1.52;;
12567;SDS011;6349;50.904;6.136;2023-07-30T04:04:46;3.33;;;1.27;;
12567;SDS011;6349;50.904;6.136;2023-07-30T04:06:49;3.50;;;1.48;;
12567;SDS011;6349;50.904;6.136;2023-07-30T04:08:49;5.30;;;1.77;;
12567;SDS011;6349;50.904;6.136;2023-07-30T04:10:50;2.47;;;1.48;;
12567;SDS011;6349;50.904;6.136;2023-07-30T04:12:50;3.10;;;1.40;;
12567;SDS011;6349;50.904;6.136;2023-07-30T04:14:51;5.78;;;1.67;;
12567;SDS011;6349;50.904;6.136;2023-07-30T04:16:52;2.05;;;1.30;;
12567;SDS011;6349;50.904;6.136;2023-07-30T04:18:52;2.90;;;1.35;;
12567;SDS011;6349;50.904;6.136;2023-07-30T04:20:56;2.92;;;1.33;;
12567;SDS011;6349;50.904;6.136;2023-07-30T04:22:56;3.20;;;1.60;;
12567;SDS011;6349;50.904;6.136;2023-07-30T04:24:57;5.45;;;1.63;;
12567;SDS011;6349;50.904;6.136;2023-07-30T04:26:57;3.08;;;1.38;;
12567;SDS011;6349;50.904;6.136;2023-07-30T04:28:58;2.63;;;1.20;;
12567;SDS011;6349;50.904;6.136;2023-07-30T04:30:59;5.32;;;1.50;;
12567;SDS011;6349;50.904;6.136;2023-07-30T04:32:59;2.70;;;1.38;;
12567;SDS011;6349;50.904;6.136;2023-07-30T04:35:00;2.60;;;1.20;;
12567;SDS011;6349;50.904;6.136;2023-07-30T04:37:02;2.90;;;1.20;;
12567;SDS011;6349;50.904;6.136;2023-07-30T04:39:03;2.08;;;1.20;;
12567;SDS011;6349;50.904;6.136;2023-07-30T04:41:04;3.28;;;1.45;;
12567;SDS011;6349;50.904;6.136;2023-07-30T04:43:04;1.50;;;1.15;;
12567;SDS011;6349;50.904;6.136;2023-07-30T04:45:05;2.60;;;1.35;;
12567;SDS011;6349;50.904;6.136;2023-07-30T04:47:06;1.85;;;1.02;;
12567;SDS011;6349;50.904;6.136;2023-07-30T04:49:07;2.35;;;1.13;;
12567;SDS011;6349;50.904;6.136;2023-07-30T04:51:08;3.17;;;1.40;;
12567;SDS011;6349;50.904;6.136;2023-07-30T04:53:08;3.28;;;1.30;;
12567;SDS011;6349;50.904;6.136;2023-07-30T04:55:09;5.32;;;1.40;;
12567;SDS011;6349;50.904;6.136;2023-07-30T04:57:10;4.13;;;1.20;;
12567;SDS011;6349;50.904;6.136;2023-07-30T04:59:10;2.97;;;1.35;;
12567;SDS011;6349;50.904;6.136;2023-07-30T05:01:11;2.50;;;1.30;;
12567;SDS011;6349;50.904;6.136;2023-07-30T05:03:12;2.50;;;1.23;;
12567;SDS011;6349;50.904;6.136;2023-07-30T05:05:12;2.67;;;1.40;;
12567;SDS011;6349;50.904;6.136;2023-07-30T05:07:13;3.35;;;1.17;;
12567;SDS011;6349;50.904;6.136;2023-07-30T05:09:13;3.95;;;1.33;;
12567;SDS011;6349;50.904;6.136;2023-07-30T05:11:14;3.13;;;1.52;;
12567;SDS011;6349;50.904;6.136;2023-07-30T05:13:14;2.17;;;1.25;;
12567;SDS011;6349;50.904;6.136;2023-07-30T05:15:15;3.25;;;1.40;;
12567;SDS011;6349;50.904;6.136;2023-07-30T05:17:16;3.38;;;1.52;;
12567;SDS011;6349;50.904;6.136;2023-07-30T05:19:16;4.25;;;1.50;;
12567;SDS011;6349;50.904;6.136;2023-07-30T05:21:17;3.45;;;1.50;;
12567;SDS011;6349;50.904;6.136;2023-07-30T05:23:19;2.78;;;1.42;;
12567;SDS011;6349;50.904;6.136;2023-07-30T05:25:20;6.43;;;1.73;;
12567;SDS011;6349;50.904;6.136;2023-07-30T05:27:21;3.13;;;1.52;;
12567;SDS011;6349;50.904;6.136;2023-07-30T05:29:21;3.55;;;1.50;;
12567;SDS011;6349;50.904;6.136;2023-07-30T05:31:22;2.58;;;1.50;;
12567;SDS011;6349;50.904;6.136;2023-07-30T05:33:22;2.83;;;1.20;;
12567;SDS011;6349;50.904;6.136;2023-07-30T05:35:23;1.83;;;1.40;;
12567;SDS011;6349;50.904;6.136;2023-07-30T05:37:24;2.58;;;1.40;;
12567;SDS011;6349;50.904;6.136;2023-07-30T05:39:24;3.72;;;1.70;;
12567;SDS011;6349;50.904;6.136;2023-07-30T05:41:26;2.00;;;1.33;;
12567;SDS011;6349;50.904;6.136;2023-07-30T05:43:26;3.88;;;1.48;;
12567;SDS011;6349;50.904;6.136;2023-07-30T05:45:28;3.53;;;1.40;;
12567;SDS011;6349;50.904;6.136;2023-07-30T05:47:29;3.35;;;1.50;;
12567;SDS011;6349;50.904;6.136;2023-07-30T05:49:29;2.08;;;1.20;;
12567;SDS011;6349;50.904;6.136;2023-07-30T05:51:30;2.08;;;1.05;;
12567;SDS011;6349;50.904;6.136;2023-07-30T05:53:31;2.72;;;1.20;;
12567;SDS011;6349;50.904;6.136;2023-07-30T05:55:31;2.63;;;1.23;;
12567;SDS011;6349;50.904;6.136;2023-07-30T05:57:32;3.08;;;1.45;;
12567;SDS011;6349;50.904;6.136;2023-07-30T05:59:33;2.65;;;1.30;;
12567;SDS011;6349;50.904;6.136;2023-07-30T06:01:33;3.95;;;1.30;;
12567;SDS011;6349;50.904;6.136;2023-07-30T06:03:34;3.50;;;1.58;;
12567;SDS011;6349;50.904;6.136;2023-07-30T06:05:38;1.35;;;1.00;;
12567;SDS011;6349;50.904;6.136;2023-07-30T06:07:45;2.80;;;1.40;;
12567;SDS011;6349;50.904;6.136;2023-07-30T06:09:46;3.30;;;1.45;;
12567;SDS011;6349;50.904;6.136;2023-07-30T06:11:47;3.75;;;1.50;;
12567;SDS011;6349;50.904;6.136;2023-07-30T06:13:47;3.38;;;1.50;;
12567;SDS011;6349;50.904;6.136;2023-07-30T06:15:48;3.22;;;1.35;;
12567;SDS011;6349;50.904;6.136;2023-07-30T06:17:49;2.75;;;1.13;;
12567;SDS011;6349;50.904;6.136;2023-07-30T06:19:49;3.45;;;1.17;;
12567;SDS011;6349;50.904;6.136;2023-07-30T06:21:50;3.90;;;1.42;;
12567;SDS011;6349;50.904;6.136;2023-07-30T06:23:51;2.03;;;1.20;;
12567;SDS011;6349;50.904;6.136;2023-07-30T06:25:51;3.50;;;1.45;;
12567;SDS011;6349;50.904;6.136;2023-07-30T06:27:52;4.47;;;1.60;;
12567;SDS011;6349;50.904;6.136;2023-07-30T06:29:54;3.25;;;1.38;;
12567;SDS011;6349;50.904;6.136;2023-07-30T06:31:54;3.47;;;1.90;;
12567;SDS011;6349;50.904;6.136;2023-07-30T06:33:55;3.20;;;1.38;;
12567;SDS011;6349;50.904;6.136;2023-07-30T06:35:55;4.90;;;1.88;;
12567;SDS011;6349;50.904;6.136;2023-07-30T06:37:56;4.07;;;1.38;;
12567;SDS011;6349;50.904;6.136;2023-07-30T06:39:57;5.18;;;1.98;;
12567;SDS011;6349;50.904;6.136;2023-07-30T06:41:57;3.92;;;1.88;;
12567;SDS011;6349;50.904;6.136;2023-07-30T06:43:58;5.28;;;1.73;;
12567;SDS011;6349;50.904;6.136;2023-07-30T06:45:58;5.47;;;1.85;;
12567;SDS011;6349;50.904;6.136;2023-07-30T06:47:59;4.45;;;1.65;;
12567;SDS011;6349;50.904;6.136;2023-07-30T06:50:00;3.85;;;1.58;;
12567;SDS011;6349;50.904;6.136;2023-07-30T06:52:00;4.88;;;1.77;;
12567;SDS011;6349;50.904;6.136;2023-07-30T06:54:01;5.60;;;1.88;;
12567;SDS011;6349;50.904;6.136;2023-07-30T06:56:02;5.68;;;1.92;;
12567;SDS011;6349;50.904;6.136;2023-07-30T06:58:03;6.93;;;1.90;;
12567;SDS011;6349;50.904;6.136;2023-07-30T07:00:04;7.03;;;2.20;;
12567;SDS011;6349;50.904;6.136;2023-07-30T07:02:05;6.40;;;1.85;;
12567;SDS011;6349;50.904;6.136;2023-07-30T07:04:06;6.45;;;2.20;;
12567;SDS011;6349;50.904;6.136;2023-07-30T07:06:06;5.47;;;2.08;;
12567;SDS011;6349;50.904;6.136;2023-07-30T07:08:07;5.20;;;1.77;;
12567;SDS011;6349;50.904;6.136;2023-07-30T07:10:08;6.68;;;2.50;;
12567;SDS011;6349;50.904;6.136;2023-07-30T07:12:10;7.18;;;2.03;;
12567;SDS011;6349;50.904;6.136;2023-07-30T07:14:11;7.15;;;1.98;;
12567;SDS011;6349;50.904;6.136;2023-07-30T07:16:11;5.30;;;2.03;;
12567;SDS011;6349;50.904;6.136;2023-07-30T07:18:12;6.60;;;2.35;;
12567;SDS011;6349;50.904;6.136;2023-07-30T07:20:14;8.95;;;2.50;;
12567;SDS011;6349;50.904;6.136;2023-07-30T07:22:14;7.43;;;2.58;;
12567;SDS011;6349;50.904;6.136;2023-07-30T07:24:17;8.27;;;2.63;;
12567;SDS011;6349;50.904;6.136;2023-07-30T07:26:18;8.68;;;2.45;;
12567;SDS011;6349;50.904;6.136;2023-07-30T07:28:18;6.28;;;2.10;;
12567;SDS011;6349;50.904;6.136;2023-07-30T07:30:19;5.13;;;2.28;;
12567;SDS011;6349;50.904;6.136;2023-07-30T07:32:19;7.40;;;2.58;;
12567;SDS011;6349;50.904;6.136;2023-07-30T07:34:20;7.75;;;2.50;;
12567;SDS011;6349;50.904;6.136;2023-07-30T07:36:21;6.63;;;2.72;;
12567;SDS011;6349;50.904;6.136;2023-07-30T07:38:22;6.50;;;2.55;;
12567;SDS011;6349;50.904;6.136;2023-07-30T07:40:23;9.38;;;2.60;;
12567;SDS011;6349;50.904;6.136;2023-07-30T07:42:24;6.75;;;2.03;;
12567;SDS011;6349;50.904;6.136;2023-07-30T07:44:25;6.28;;;2.15;;
12567;SDS011;6349;50.904;6.136;2023-07-30T07:46:25;6.55;;;2.05;;
12567;SDS011;6349;50.904;6.136;2023-07-30T07:48:27;8.10;;;2.50;;
12567;SDS011;6349;50.904;6.136;2023-07-30T07:50:28;6.22;;;2.30;;
12567;SDS011;6349;50.904;6.136;2023-07-30T07:52:28;5.30;;;2.33;;
12567;SDS011;6349;50.904;6.136;2023-07-30T07:54:29;6.22;;;2.50;;
12567;SDS011;6349;50.904;6.136;2023-07-30T07:56:30;5.50;;;2.10;;
12567;SDS011;6349;50.904;6.136;2023-07-30T07:58:31;7.95;;;2.65;;
12567;SDS011;6349;50.904;6.136;2023-07-30T08:00:32;6.57;;;2.28;;
12567;SDS011;6349;50.904;6.136;2023-07-30T08:02:33;7.75;;;2.20;;
12567;SDS011;6349;50.904;6.136;2023-07-30T08:04:33;7.78;;;2.08;;
12567;SDS011;6349;50.904;6.136;2023-07-30T08:06:34;6.07;;;2.33;;
12567;SDS011;6349;50.904;6.136;2023-07-30T08:08:35;7.75;;;2.42;;
12567;SDS011;6349;50.904;6.136;2023-07-30T08:10:38;7.80;;;2.53;;
12567;SDS011;6349;50.904;6.136;2023-07-30T08:12:39;7.00;;;2.50;;
12567;SDS011;6349;50.904;6.136;2023-07-30T08:14:40;10.38;;;2.80;;
12567;SDS011;6349;50.904;6.136;2023-07-30T08:16:40;7.70;;;2.22;;
12567;SDS011;6349;50.904;6.136;2023-07-30T08:18:42;6.75;;;2.50;;
12567;SDS011;6349;50.904;6.136;2023-07-30T08:20:45;6.13;;;2.22;;
12567;SDS011;6349;50.904;6.136;2023-07-30T08:22:48;6.15;;;2.42;;
12567;SDS011;6349;50.904;6.136;2023-07-30T08:24:50;5.40;;;2.38;;
12567;SDS011;6349;50.904;6.136;2023-07-30T08:26:52;6.15;;;2.35;;
12567;SDS011;6349;50.904;6.136;2023-07-30T08:28:54;6.18;;;2.22;;
12567;SDS011;6349;50.904;6.136;2023-07-30T08:31:05;6.30;;;2.13;;
12567;SDS011;6349;50.904;6.136;2023-07-30T08:33:07;6.30;;;2.15;;
12567;SDS011;6349;50.904;6.136;2023-07-30T08:35:08;5.50;;;1.83;;
12567;SDS011;6349;50.904;6.136;2023-07-30T08:37:11;6.93;;;2.15;;
12567;SDS011;6349;50.904;6.136;2023-07-30T08:39:12;7.22;;;2.63;;
12567;SDS011;6349;50.904;6.136;2023-07-30T08:41:14;6.57;;;2.25;;
12567;SDS011;6349;50.904;6.136;2023-07-30T08:43:19;5.28;;;2.30;;
12567;SDS011;6349;50.904;6.136;2023-07-30T08:45:21;5.28;;;2.28;;
12567;SDS011;6349;50.904;6.136;2023-07-30T08:47:23;8.48;;;2.58;;
12567;SDS011;6349;50.904;6.136;2023-07-30T08:49:25;7.70;;;2.78;;
12567;SDS011;6349;50.904;6.136;2023-07-30T08:51:29;6.55;;;2.17;;
12567;SDS011;6349;50.904;6.136;2023-07-30T08:53:32;6.03;;;2.53;;
12567;SDS011;6349;50.904;6.136;2023-07-30T08:55:35;5.10;;;2.08;;
12567;SDS011;6349;50.904;6.136;2023-07-30T08:57:40;5.20;;;1.92;;
12567;SDS011;6349;50.904;6.136;2023-07-30T08:59:45;6.68;;;2.50;;
12567;SDS011;6349;50.904;6.136;2023-07-30T09:02:13;7.20;;;2.35;;
12567;SDS011;6349;50.904;6.136;2023-07-30T09:04:30;4.07;;;2.08;;
12567;SDS011;6349;50.904;6.136;2023-07-30T09:06:36;7.50;;;2.35;;
12567;SDS011;6349;50.904;6.136;2023-07-30T09:08:38;6.20;;;2.45;;
12567;SDS011;6349;50.904;6.136;2023-07-30T09:10:40;7.00;;;2.17;;
12567;SDS011;6349;50.904;6.136;2023-07-30T09:12:42;5.20;;;2.22;;
12567;SDS011;6349;50.904;6.136;2023-07-30T09:14:46;4.07;;;1.77;;
12567;SDS011;6349;50.904;6.136;2023-07-30T09:17:01;5.78;;;2.30;;
12567;SDS011;6349;50.904;6.136;2023-07-30T09:19:03;5.40;;;2.08;;
12567;SDS011;6349;50.904;6.136;2023-07-30T09:21:07;6.13;;;2.28;;
12567;SDS011;6349;50.904;6.136;2023-07-30T09:23:11;7.00;;;2.30;;
12567;SDS011;6349;50.904;6.136;2023-07-30T09:25:12;7.50;;;2.15;;
12567;SDS011;6349;50.904;6.136;2023-07-30T09:27:19;7.50;;;2.10;;
12567;SDS011;6349;50.904;6.136;2023-07-30T09:29:27;6.40;;;1.80;;
12567;SDS011;6349;50.904;6.136;2023-07-30T09:31:29;5.15;;;1.70;;
12567;SDS011;6349;50.904;6.136;2023-07-30T09:33:40;4.90;;;1.90;;
12567;SDS011;6349;50.904;6.136;2023-07-30T09:35:43;8.57;;;1.98;;
12567;SDS011;6349;50.904;6.136;2023-07-30T09:37:45;6.53;;;2.20;;
12567;SDS011;6349;50.904;6.136;2023-07-30T09:39:50;4.13;;;1.83;;
12567;SDS011;6349;50.904;6.136;2023-07-30T09:41:53;3.95;;;1.85;;
12567;SDS011;6349;50.904;6.136;2023-07-30T09:44:01;4.25;;;1.70;;
12567;SDS011;6349;50.904;6.136;2023-07-30T09:46:04;5.18;;;1.70;;
12567;SDS011;6349;50.904;6.136;2023-07-30T09:48:06;4.85;;;1.58;;
12567;SDS011;6349;50.904;6.136;2023-07-30T09:50:07;4.10;;;1.75;;
12567;SDS011;6349;50.904;6.136;2023-07-30T09:52:10;4.55;;;1.65;;
12567;SDS011;6349;50.904;6.136;2023-07-30T09:54:15;3.33;;;1.60;;
12567;SDS011;6349;50.904;6.136;2023-07-30T09:56:17;3.90;;;1.70;;
12567;SDS011;6349;50.904;6.136;2023-07-30T09:58:21;4.00;;;1.70;;
12567;SDS011;6349;50.904;6.136;2023-07-30T10:00:25;4.60;;;1.60;;
12567;SDS011;6349;50.904;6.136;2023-07-30T10:02:30;4.05;;;1.52;;
12567;SDS011;6349;50.904;6.136;2023-07-30T10:04:37;4.05;;;1.52;;
12567;SDS011;6349;50.904;6.136;2023-07-30T10:07:06;2.70;;;1.40;;
12567;SDS011;6349;50.904;6.136;2023-07-30T10:09:10;4.15;;;1.50;;
12567;SDS011;6349;50.904;6.136;2023-07-30T10:11:13;4.75;;;1.70;;
12567;SDS011;6349;50.904;6.136;2023-07-30T10:13:15;3.67;;;1.65;;
12567;SDS011;6349;50.904;6.136;2023-07-30T10:15:19;4.30;;;1.73;;
12567;SDS011;6349;50.904;6.136;2023-07-30T10:17:22;5.63;;;1.70;;
12567;SDS011;6349;50.904;6.136;2023-07-30T10:19:26;3.17;;;1.88;;
12567;SDS011;6349;50.904;6.136;2023-07-30T10:21:31;4.72;;;1.60;;
12567;SDS011;6349;50.904;6.136;2023-07-30T10:23:35;3.47;;;1.55;;
12567;SDS011;6349;50.904;6.136;2023-07-30T10:25:43;3.30;;;1.50;;
12567;SDS011;6349;50.904;6.136;2023-07-30T10:27:50;6.15;;;1.95;;
12567;SDS011;6349;50.904;6.136;2023-07-30T10:32:12;5.40;;;2.00;;
12567;SDS011;6349;50.904;6.136;2023-07-30T10:34:14;3.17;;;1.35;;
12567;SDS011;6349;50.904;6.136;2023-07-30T10:36:16;3.72;;;1.30;;
12567;SDS011;6349;50.904;6.136;2023-07-30T10:38:34;7.60;;;2.00;;
12567;SDS011;6349;50.904;6.136;2023-07-30T10:40:39;5.20;;;1.77;;
12567;SDS011;6349;50.904;6.136;2023-07-30T10:42:41;6.00;;;1.70;;
12567;SDS011;6349;50.904;6.136;2023-07-30T10:44:46;3.67;;;1.80;;
12567;SDS011;6349;50.904;6.136;2023-07-30T10:46:48;4.75;;;1.65;;
12567;SDS011;6349;50.904;6.136;2023-07-30T10:48:50;4.15;;;1.50;;
12567;SDS011;6349;50.904;6.136;2023-07-30T10:50:52;4.90;;;1.83;;
12567;SDS011;6349;50.904;6.136;2023-07-30T10:52:53;4.78;;;1.30;;
12567;SDS011;6349;50.904;6.136;2023-07-30T10:55:01;3.78;;;1.73;;
12567;SDS011;6349;50.904;6.136;2023-07-30T10:57:05;4.30;;;1.65;;
12567;SDS011;6349;50.904;6.136;2023-07-30T10:59:07;4.18;;;1.45;;
12567;SDS011;6349;50.904;6.136;2023-07-30T11:01:09;6.63;;;1.90;;
12567;SDS011;6349;50.904;6.136;2023-07-30T11:03:12;2.92;;;1.40;;
12567;SDS011;6349;50.904;6.136;2023-07-30T11:05:17;5.95;;;1.88;;
12567;SDS011;6349;50.904;6.136;2023-07-30T11:07:19;3.35;;;1.52;;
12567;SDS011;6349;50.904;6.136;2023-07-30T11:09:23;4.75;;;1.60;;
12567;SDS011;6349;50.904;6.136;2023-07-30T11:11:26;3.92;;;1.50;;
12567;SDS011;6349;50.904;6.136;2023-07-30T11:13:28;4.07;;;1.73;;
12567;SDS011;6349;50.904;6.136;2023-07-30T11:15:31;3.50;;;1.58;;
12567;SDS011;6349;50.904;6.136;2023-07-30T11:17:34;5.32;;;1.80;;
12567;SDS011;6349;50.904;6.136;2023-07-30T11:19:37;5.15;;;1.75;;
12567;SDS011;6349;50.904;6.136;2023-07-30T11:21:45;5.20;;;1.83;;
12567;SDS011;6349;50.904;6.136;2023-07-30T11:23:47;3.83;;;1.70;;
12567;SDS011;6349;50.904;6.136;2023-07-30T11:25:49;6.55;;;1.65;;
12567;SDS011;6349;50.904;6.136;2023-07-30T11:27:51;3.53;;;1.70;;
12567;SDS011;6349;50.904;6.136;2023-07-30T11:29:55;3.65;;;1.85;;
12567;SDS011;6349;50.904;6.136;2023-07-30T11:31:58;5.55;;;1.60;;
12567;SDS011;6349;50.904;6.136;2023-07-30T11:34:00;4.20;;;1.58;;
12567;SDS011;6349;50.904;6.136;2023-07-30T11:36:03;4.10;;;1.70;;
12567;SDS011;6349;50.904;6.136;2023-07-30T11:38:05;4.50;;;1.58;;
12567;SDS011;6349;50.904;6.136;2023-07-30T11:40:11;5.15;;;1.65;;
12567;SDS011;6349;50.904;6.136;2023-07-30T11:42:14;3.05;;;1.55;;
12567;SDS011;6349;50.904;6.136;2023-07-30T11:44:32;2.40;;;1.50;;
12567;SDS011;6349;50.904;6.136;2023-07-30T11:46:39;4.50;;;1.58;;
12567;SDS011;6349;50.904;6.136;2023-07-30T11:49:13;3.83;;;1.67;;
12567;SDS011;6349;50.904;6.136;2023-07-30T11:51:22;4.63;;;1.88;;
12567;SDS011;6349;50.904;6.136;2023-07-30T11:55:49;3.70;;;1.60;;
12567;SDS011;6349;50.904;6.136;2023-07-30T11:57:51;4.10;;;1.55;;
12567;SDS011;6349;50.904;6.136;2023-07-30T11:59:53;4.22;;;1.90;;
12567;SDS011;6349;50.904;6.136;2023-07-30T12:01:55;4.97;;;2.00;;
12567;SDS011;6349;50.904;6.136;2023-07-30T12:03:57;3.53;;;1.73;;
12567;SDS011;6349;50.904;6.136;2023-07-30T12:05:58;5.68;;;1.63;;
12567;SDS011;6349;50.904;6.136;2023-07-30T12:08:12;3.05;;;1.70;;
12567;SDS011;6349;50.904;6.136;2023-07-30T12:10:17;4.35;;;1.70;;
12567;SDS011;6349;50.904;6.136;2023-07-30T12:12:24;5.90;;;1.95;;
12567;SDS011;6349;50.904;6.136;2023-07-30T12:14:27;3.10;;;1.50;;
12567;SDS011;6349;50.904;6.136;2023-07-30T12:16:33;5.38;;;1.80;;
12567;SDS011;6349;50.904;6.136;2023-07-30T12:18:36;4.28;;;1.85;;
12567;SDS011;6349;50.904;6.136;2023-07-30T12:20:38;3.85;;;1.73;;
12567;SDS011;6349;50.904;6.136;2023-07-30T12:22:40;3.38;;;1.60;;
12567;SDS011;6349;50.904;6.136;2023-07-30T12:24:42;4.53;;;1.63;;
12567;SDS011;6349;50.904;6.136;2023-07-30T12:26:43;5.20;;;2.00;;
12567;SDS011;6349;50.904;6.136;2023-07-30T12:28:43;3.80;;;1.55;;
12567;SDS011;6349;50.904;6.136;2023-07-30T12:30:45;3.28;;;1.50;;